sensor_id;sensor_type;location;lat;lon;timestamp;pressure;altitude;pressure_sealevel;temperature;humidity
75717;BME280;64333;50.138;14.332;2023-02-13T00:00:17;100204.47;;;5.65;92.70
75717;BME280;64333;50.138;14.332;2023-02-13T00:02:42;100202.78;;;5.69;93.07
75717;BME280;64333;50.138;14.332;2023-02-13T00:05:08;100200.19;;;5.63;92.80
75717;BME280;64333;50.138;14.332;2023-02-13T00:07:33;100202.69;;;5.60;92.92
75717;BME280;64333;50.138;14.332;2023-02-13T00:09:58;100198.41;;;5.57;92.57
75717;BME280;64333;50.138;14.332;2023-02-13T00:12:24;100197.53;;;5.51;93.11
75717;BME280;64333;50.138;14.332;2023-02-13T00:14:49;100202.66;;;5.54;93.61
75717;BME280;64333;50.138;14.332;2023-02-13T00:17:14;100199.28;;;5.58;93.73
75717;BME280;64333;50.138;14.332;2023-02-13T00:19:40;100198.38;;;5.53;94.06
75717;BME280;64333;50.138;14.332;2023-02-13T00:22:05;100191.50;;;5.46;94.32
75717;BME280;64333;50.138;14.332;2023-02-13T00:24:31;100191.47;;;5.41;95.10
75717;BME280;64333;50.138;14.332;2023-02-13T00:26:56;100196.59;;;5.44;94.86
75717;BME280;64333;50.138;14.332;2023-02-13T00:29:21;100197.47;;;5.48;94.27
75717;BME280;64333;50.138;14.332;2023-02-13T00:31:47;100201.78;;;5.50;93.90
75717;BME280;64333;50.138;14.332;2023-02-13T00:34:12;100202.69;;;5.57;93.88
75717;BME280;64333;50.138;14.332;2023-02-13T00:36:38;100206.13;;;5.59;93.78
75717;BME280;64333;50.138;14.332;2023-02-13T00:39:03;100209.56;;;5.67;93.32
75717;BME280;64333;50.138;14.332;2023-02-13T00:41:29;100197.66;;;5.69;92.81
75717;BME280;64333;50.138;14.332;2023-02-13T00:43:54;100207.03;;;5.65;92.71
75717;BME280;64333;50.138;14.332;2023-02-13T00:46:20;100206.97;;;5.58;93.39
75717;BME280;64333;50.138;14.332;2023-02-13T00:48:45;100199.22;;;5.49;93.61
75717;BME280;64333;50.138;14.332;2023-02-13T00:51:11;100200.91;;;5.47;94.24
75717;BME280;64333;50.138;14.332;2023-02-13T00:53:37;100197.44;;;5.39;95.34
75717;BME280;64333;50.138;14.332;2023-02-13T00:56:04;100194.84;;;5.37;94.63
75717;BME280;64333;50.138;14.332;2023-02-13T00:58:29;100188.03;;;5.35;94.74
75717;BME280;64333;50.138;14.332;2023-02-13T01:00:55;100193.09;;;5.32;94.54
75717;BME280;64333;50.138;14.332;2023-02-13T01:03:21;100187.13;;;5.30;94.49
75717;BME280;64333;50.138;14.332;2023-02-13T01:05:47;100186.25;;;5.28;94.96
75717;BME280;64333;50.138;14.332;2023-02-13T01:08:13;100191.34;;;5.25;94.31
75717;BME280;64333;50.138;14.332;2023-02-13T01:10:40;100197.34;;;5.27;94.75
75717;BME280;64333;50.138;14.332;2023-02-13T01:13:06;100192.19;;;5.24;94.87
75717;BME280;64333;50.138;14.332;2023-02-13T01:15:32;100187.88;;;5.20;94.46
75717;BME280;64333;50.138;14.332;2023-02-13T01:17:58;100191.38;;;5.26;94.49
75717;BME280;64333;50.138;14.332;2023-02-13T01:20:25;100187.06;;;5.24;94.44
75717;BME280;64333;50.138;14.332;2023-02-13T01:22:51;100189.63;;;5.24;93.46
75717;BME280;64333;50.138;14.332;2023-02-13T01:25:17;100181.97;;;5.24;93.30
75717;BME280;64333;50.138;14.332;2023-02-13T01:27:42;100185.38;;;5.26;93.65
75717;BME280;64333;50.138;14.332;2023-02-13T01:30:10;100180.22;;;5.20;93.60
75717;BME280;64333;50.138;14.332;2023-02-13T01:32:39;100179.34;;;5.18;93.96
75717;BME280;64333;50.138;14.332;2023-02-13T01:35:05;100181.91;;;5.21;93.27
75717;BME280;64333;50.138;14.332;2023-02-13T01:37:30;100180.09;;;5.05;93.05
75717;BME280;64333;50.138;14.332;2023-02-13T01:39:56;100179.09;;;4.90;94.06
75717;BME280;64333;50.138;14.332;2023-02-13T01:42:25;100178.09;;;4.74;94.85
75717;BME280;64333;50.138;14.332;2023-02-13T01:44:54;100182.28;;;4.63;96.31
75717;BME280;64333;50.138;14.332;2023-02-13T01:49:58;100176.09;;;4.46;97.32
75717;BME280;64333;50.138;14.332;2023-02-13T01:52:27;100170.84;;;4.34;98.20
75717;BME280;64333;50.138;14.332;2023-02-13T01:54:52;100175.13;;;4.35;98.47
75717;BME280;64333;50.138;14.332;2023-02-13T01:57:20;100178.59;;;4.40;98.24
75717;BME280;64333;50.138;14.332;2023-02-13T01:59:51;100185.44;;;4.40;97.74
75717;BME280;64333;50.138;14.332;2023-02-13T02:02:18;100177.75;;;4.41;96.35
75717;BME280;64333;50.138;14.332;2023-02-13T02:04:45;100182.94;;;4.47;95.64
75717;BME280;64333;50.138;14.332;2023-02-13T02:07:23;100179.50;;;4.42;95.54
75717;BME280;64333;50.138;14.332;2023-02-13T02:09:51;100173.56;;;4.48;96.16
75717;BME280;64333;50.138;14.332;2023-02-13T02:12:39;100171.88;;;4.50;96.42
75717;BME280;64333;50.138;14.332;2023-02-13T02:15:06;100177.09;;;4.60;94.80
75717;BME280;64333;50.138;14.332;2023-02-13T02:17:32;100167.78;;;4.65;94.82
75717;BME280;64333;50.138;14.332;2023-02-13T02:43:13;100149.06;;;4.71;94.23
75717;BME280;64333;50.138;14.332;2023-02-13T02:54:12;100143.88;;;4.63;93.87
75717;BME280;64333;50.138;14.332;2023-02-13T02:56:59;100139.63;;;4.65;94.00
75717;BME280;64333;50.138;14.332;2023-02-13T02:59:28;100145.59;;;4.67;94.34
75717;BME280;64333;50.138;14.332;2023-02-13T03:02:14;100142.25;;;4.71;93.92
75717;BME280;64333;50.138;14.332;2023-02-13T03:05:00;100135.44;;;4.73;93.60
75717;BME280;64333;50.138;14.332;2023-02-13T03:07:44;100136.31;;;4.75;93.78
75717;BME280;64333;50.138;14.332;2023-02-13T03:10:17;100131.22;;;4.75;93.74
75717;BME280;64333;50.138;14.332;2023-02-13T03:13:06;100128.63;;;4.77;93.81
75717;BME280;64333;50.138;14.332;2023-02-13T03:15:52;100140.59;;;4.79;94.17
75717;BME280;64333;50.138;14.332;2023-02-13T03:18:45;100135.47;;;4.76;93.76
75717;BME280;64333;50.138;14.332;2023-02-13T03:25:09;100142.47;;;4.95;92.79
75717;BME280;64333;50.138;14.332;2023-02-13T03:27:57;100147.59;;;5.01;92.81
75717;BME280;64333;50.138;14.332;2023-02-13T03:31:24;100143.41;;;5.07;91.57
75717;BME280;64333;50.138;14.332;2023-02-13T03:42:10;100141.75;;;5.14;90.76
75717;BME280;64333;50.138;14.332;2023-02-13T03:44:48;100146.09;;;5.24;90.57
75717;BME280;64333;50.138;14.332;2023-02-13T03:47:37;100144.34;;;5.20;90.59
75717;BME280;64333;50.138;14.332;2023-02-13T03:50:05;100138.38;;;5.21;90.50
75717;BME280;64333;50.138;14.332;2023-02-13T03:52:54;100140.94;;;5.18;90.37
75717;BME280;64333;50.138;14.332;2023-02-13T03:55:30;100134.91;;;5.13;90.63
75717;BME280;64333;50.138;14.332;2023-02-13T03:58:23;100137.47;;;5.13;90.81
75717;BME280;64333;50.138;14.332;2023-02-13T04:01:11;100139.22;;;5.20;90.28
75717;BME280;64333;50.138;14.332;2023-02-13T04:06:11;100140.97;;;5.24;89.77
75717;BME280;64333;50.138;14.332;2023-02-13T04:08:37;100150.38;;;5.28;90.51
75717;BME280;64333;50.138;14.332;2023-02-13T04:13:35;100140.97;;;5.24;89.76
75717;BME280;64333;50.138;14.332;2023-02-13T04:16:13;100142.69;;;5.28;89.83
75717;BME280;64333;50.138;14.332;2023-02-13T04:18:40;100143.53;;;5.24;89.68
75717;BME280;64333;50.138;14.332;2023-02-13T04:21:07;100148.69;;;5.25;89.56
75717;BME280;64333;50.138;14.332;2023-02-13T04:23:33;100146.97;;;5.27;89.83
75717;BME280;64333;50.138;14.332;2023-02-13T04:26:02;100140.13;;;5.25;89.99
75717;BME280;64333;50.138;14.332;2023-02-13T04:28:28;100142.69;;;5.22;89.65
75717;BME280;64333;50.138;14.332;2023-02-13T04:30:53;100146.91;;;5.20;90.19
75717;BME280;64333;50.138;14.332;2023-02-13T04:33:18;100138.41;;;5.27;89.51
75717;BME280;64333;50.138;14.332;2023-02-13T04:35:43;100135.84;;;5.24;89.75
75717;BME280;64333;50.138;14.332;2023-02-13T04:38:09;100142.69;;;5.25;89.91
75717;BME280;64333;50.138;14.332;2023-02-13T04:40:34;100143.56;;;5.28;89.56
75717;BME280;64333;50.138;14.332;2023-02-13T04:43:00;100137.59;;;5.34;89.47
75717;BME280;64333;50.138;14.332;2023-02-13T04:45:25;100141.06;;;5.39;89.41
75717;BME280;64333;50.138;14.332;2023-02-13T04:47:52;100145.38;;;5.46;89.51
75717;BME280;64333;50.138;14.332;2023-02-13T04:50:18;100141.97;;;5.45;88.84
75717;BME280;64333;50.138;14.332;2023-02-13T04:52:43;100149.69;;;5.50;88.57
75717;BME280;64333;50.138;14.332;2023-02-13T04:55:09;100148.03;;;5.55;87.77
75717;BME280;64333;50.138;14.332;2023-02-13T04:57:34;100152.28;;;5.57;87.99
75717;BME280;64333;50.138;14.332;2023-02-13T04:59:59;100148.03;;;5.59;87.16
75717;BME280;64333;50.138;14.332;2023-02-13T05:02:25;100156.59;;;5.66;87.08
75717;BME280;64333;50.138;14.332;2023-02-13T05:04:50;100139.50;;;5.62;87.29
75717;BME280;64333;50.138;14.332;2023-02-13T05:07:15;100148.91;;;5.63;87.00
75717;BME280;64333;50.138;14.332;2023-02-13T05:09:41;100138.66;;;5.61;86.62
75717;BME280;64333;50.138;14.332;2023-02-13T05:12:07;100147.19;;;5.60;86.23
75717;BME280;64333;50.138;14.332;2023-02-13T05:14:32;100146.31;;;5.57;86.85
75717;BME280;64333;50.138;14.332;2023-02-13T05:16:57;100152.28;;;5.59;86.86
75717;BME280;64333;50.138;14.332;2023-02-13T05:19:23;100146.34;;;5.61;86.10
75717;BME280;64333;50.138;14.332;2023-02-13T05:21:48;100142.06;;;5.60;86.62
75717;BME280;64333;50.138;14.332;2023-02-13T05:24:32;100144.66;;;5.68;85.38
75717;BME280;64333;50.138;14.332;2023-02-13T05:26:57;100136.09;;;5.63;85.67
75717;BME280;64333;50.138;14.332;2023-02-13T05:29:23;100144.59;;;5.56;85.73
75717;BME280;64333;50.138;14.332;2023-02-13T05:31:53;100137.72;;;5.52;85.36
75717;BME280;64333;50.138;14.332;2023-02-13T05:34:20;100149.72;;;5.59;84.75
75717;BME280;64333;50.138;14.332;2023-02-13T05:36:46;100155.72;;;5.61;84.49
75717;BME280;64333;50.138;14.332;2023-02-13T05:39:11;100150.59;;;5.62;85.09
75717;BME280;64333;50.138;14.332;2023-02-13T05:41:37;100154.03;;;5.64;84.98
75717;BME280;64333;50.138;14.332;2023-02-13T05:44:03;100148.06;;;5.65;84.31
75717;BME280;64333;50.138;14.332;2023-02-13T05:46:28;100152.31;;;5.63;84.30
75717;BME280;64333;50.138;14.332;2023-02-13T05:48:54;100154.03;;;5.63;83.73
75717;BME280;64333;50.138;14.332;2023-02-13T05:51:19;100136.91;;;5.56;84.10
75717;BME280;64333;50.138;14.332;2023-02-13T05:53:45;100148.94;;;5.67;83.60
75717;BME280;64333;50.138;14.332;2023-02-13T05:56:10;100144.63;;;5.62;83.29
75717;BME280;64333;50.138;14.332;2023-02-13T05:58:36;100147.19;;;5.60;83.49
75717;BME280;64333;50.138;14.332;2023-02-13T06:01:02;100144.59;;;5.59;83.38
75717;BME280;64333;50.138;14.332;2023-02-13T06:03:29;100152.28;;;5.57;83.75
75717;BME280;64333;50.138;14.332;2023-02-13T06:05:54;100155.72;;;5.58;83.45
75717;BME280;64333;50.138;14.332;2023-02-13T06:08:21;100145.47;;;5.59;83.51
75717;BME280;64333;50.138;14.332;2023-02-13T06:10:47;100151.47;;;5.63;83.71
75717;BME280;64333;50.138;14.332;2023-02-13T06:13:12;100159.16;;;5.61;82.95
75717;BME280;64333;50.138;14.332;2023-02-13T06:15:38;100154.84;;;5.54;83.71
75717;BME280;64333;50.138;14.332;2023-02-13T06:18:03;100158.28;;;5.55;83.84
75717;BME280;64333;50.138;14.332;2023-02-13T06:20:29;100153.16;;;5.58;83.21
75717;BME280;64333;50.138;14.332;2023-02-13T06:22:54;100147.16;;;5.59;83.25
75717;BME280;64333;50.138;14.332;2023-02-13T06:25:20;100149.75;;;5.62;82.34
75717;BME280;64333;50.138;14.332;2023-02-13T06:27:45;100153.16;;;5.61;83.32
75717;BME280;64333;50.138;14.332;2023-02-13T06:30:12;100148.03;;;5.58;82.81
75717;BME280;64333;50.138;14.332;2023-02-13T06:32:37;100148.00;;;5.56;82.71
75717;BME280;64333;50.138;14.332;2023-02-13T06:35:03;100151.47;;;5.58;83.12
75717;BME280;64333;50.138;14.332;2023-02-13T06:37:28;100153.16;;;5.55;83.16
75717;BME280;64333;50.138;14.332;2023-02-13T06:39:53;100164.22;;;5.55;82.80
75717;BME280;64333;50.138;14.332;2023-02-13T06:42:19;100169.41;;;5.61;82.23
75717;BME280;64333;50.138;14.332;2023-02-13T06:44:44;100170.31;;;5.71;82.48
75717;BME280;64333;50.138;14.332;2023-02-13T06:47:09;100173.72;;;5.70;82.49
75717;BME280;64333;50.138;14.332;2023-02-13T06:49:35;100173.72;;;5.70;81.98
75717;BME280;64333;50.138;14.332;2023-02-13T06:52:00;100174.59;;;5.69;81.37
75717;BME280;64333;50.138;14.332;2023-02-13T06:54:26;100170.31;;;5.74;81.08
75717;BME280;64333;50.138;14.332;2023-02-13T06:56:51;100171.19;;;5.77;81.33
75717;BME280;64333;50.138;14.332;2023-02-13T06:59:17;100165.22;;;5.77;81.29
75717;BME280;64333;50.138;14.332;2023-02-13T07:01:42;100164.34;;;5.73;81.45
75717;BME280;64333;50.138;14.332;2023-02-13T07:04:07;100166.06;;;5.76;81.75
75717;BME280;64333;50.138;14.332;2023-02-13T07:06:32;100164.34;;;5.76;81.45
75717;BME280;64333;50.138;14.332;2023-02-13T07:09:00;100164.41;;;5.79;81.23
75717;BME280;64333;50.138;14.332;2023-02-13T07:11:25;100160.16;;;5.81;81.10
75717;BME280;64333;50.138;14.332;2023-02-13T07:13:50;100169.50;;;5.75;81.31
75717;BME280;64333;50.138;14.332;2023-02-13T07:16:16;100169.53;;;5.81;81.04
75717;BME280;64333;50.138;14.332;2023-02-13T07:18:41;100171.19;;;5.76;81.09
75717;BME280;64333;50.138;14.332;2023-02-13T07:21:07;100178.97;;;5.82;81.25
75717;BME280;64333;50.138;14.332;2023-02-13T07:23:32;100179.84;;;5.90;80.77
75717;BME280;64333;50.138;14.332;2023-02-13T07:25:59;100185.81;;;5.86;80.92
75717;BME280;64333;50.138;14.332;2023-02-13T07:28:25;100190.09;;;5.88;80.03
75717;BME280;64333;50.138;14.332;2023-02-13T07:30:51;100192.66;;;5.90;80.45
75717;BME280;64333;50.138;14.332;2023-02-13T07:33:16;100192.66;;;5.93;80.09
75717;BME280;64333;50.138;14.332;2023-02-13T07:35:51;100180.75;;;5.95;79.99
75717;BME280;64333;50.138;14.332;2023-02-13T07:38:17;100190.97;;;5.96;80.05
75717;BME280;64333;50.138;14.332;2023-02-13T07:40:42;100180.78;;;6.10;79.19
75717;BME280;64333;50.138;14.332;2023-02-13T07:43:08;100179.97;;;6.21;78.53
75717;BME280;64333;50.138;14.332;2023-02-13T07:45:34;100191.13;;;6.31;78.69
75717;BME280;64333;50.138;14.332;2023-02-13T07:48:08;100188.59;;;6.38;78.82
75717;BME280;64333;50.138;14.332;2023-02-13T07:50:33;100188.63;;;6.46;77.62
75717;BME280;64333;50.138;14.332;2023-02-13T07:53:00;100183.53;;;6.67;76.94
75717;BME280;64333;50.138;14.332;2023-02-13T07:55:28;100189.56;;;6.84;76.22
75717;BME280;64333;50.138;14.332;2023-02-13T07:57:53;100191.28;;;6.94;75.76
75717;BME280;64333;50.138;14.332;2023-02-13T08:00:19;100189.56;;;7.03;76.12
75717;BME280;64333;50.138;14.332;2023-02-13T08:02:45;100196.41;;;7.16;75.28
75717;BME280;64333;50.138;14.332;2023-02-13T08:05:11;100186.13;;;7.27;74.60
75717;BME280;64333;50.138;14.332;2023-02-13T08:07:36;100191.31;;;7.04;74.23
75717;BME280;64333;50.138;14.332;2023-02-13T08:10:03;100192.97;;;6.92;75.57
75717;BME280;64333;50.138;14.332;2023-02-13T08:12:47;100188.72;;;7.22;74.88
75717;BME280;64333;50.138;14.332;2023-02-13T08:15:14;100183.56;;;7.43;74.25
75717;BME280;64333;50.138;14.332;2023-02-13T08:17:39;100181.88;;;7.35;73.29
75717;BME280;64333;50.138;14.332;2023-02-13T08:20:06;100185.28;;;7.01;74.70
75717;BME280;64333;50.138;14.332;2023-02-13T08:22:33;100175.03;;;6.84;75.60
75717;BME280;64333;50.138;14.332;2023-02-13T08:24:58;100179.25;;;6.81;75.56
75717;BME280;64333;50.138;14.332;2023-02-13T08:27:24;100175.03;;;6.99;75.10
75717;BME280;64333;50.138;14.332;2023-02-13T08:29:49;100179.28;;;7.14;74.19
75717;BME280;64333;50.138;14.332;2023-02-13T08:32:16;100174.16;;;7.26;73.41
75717;BME280;64333;50.138;14.332;2023-02-13T08:34:41;100190.41;;;7.40;73.28
75717;BME280;64333;50.138;14.332;2023-02-13T08:37:06;100185.25;;;7.77;72.56
75717;BME280;64333;50.138;14.332;2023-02-13T08:39:32;100182.59;;;7.97;71.82
75717;BME280;64333;50.138;14.332;2023-02-13T08:41:57;100186.84;;;8.22;71.08
75717;BME280;64333;50.138;14.332;2023-02-13T08:44:23;100186.72;;;8.47;71.02
75717;BME280;64333;50.138;14.332;2023-02-13T08:46:48;100181.47;;;8.64;70.34
75717;BME280;64333;50.138;14.332;2023-02-13T08:49:13;100190.78;;;8.80;69.04
75717;BME280;64333;50.138;14.332;2023-02-13T08:51:39;100189.00;;;8.92;69.12
75717;BME280;64333;50.138;14.332;2023-02-13T08:54:04;100192.34;;;9.03;68.27
75717;BME280;64333;50.138;14.332;2023-02-13T08:56:30;100194.88;;;9.14;67.39
75717;BME280;64333;50.138;14.332;2023-02-13T08:58:55;100196.50;;;9.24;67.64
75717;BME280;64333;50.138;14.332;2023-02-13T09:01:20;100202.44;;;9.33;66.31
75717;BME280;64333;50.138;14.332;2023-02-13T09:03:48;100205.06;;;9.29;66.42
75717;BME280;64333;50.138;14.332;2023-02-13T09:06:13;100208.38;;;9.43;66.49
75717;BME280;64333;50.138;14.332;2023-02-13T09:08:39;100201.69;;;9.16;66.75
75717;BME280;64333;50.138;14.332;2023-02-13T09:11:04;100195.75;;;9.10;66.50
75717;BME280;64333;50.138;14.332;2023-02-13T09:13:31;100197.31;;;9.30;65.65
75717;BME280;64333;50.138;14.332;2023-02-13T09:15:59;100203.19;;;9.46;65.08
75717;BME280;64333;50.138;14.332;2023-02-13T09:18:25;100197.50;;;9.03;66.02
75717;BME280;64333;50.138;14.332;2023-02-13T09:20:57;100205.06;;;9.30;66.18
75717;BME280;64333;50.138;14.332;2023-02-13T09:23:22;100191.19;;;9.40;65.16
75717;BME280;64333;50.138;14.332;2023-02-13T09:25:48;100204.72;;;9.68;63.83
75717;BME280;64333;50.138;14.332;2023-02-13T09:28:13;100202.38;;;9.41;64.56
75717;BME280;64333;50.138;14.332;2023-02-13T09:30:38;100215.53;;;10.00;62.81
75717;BME280;64333;50.138;14.332;2023-02-13T09:33:09;100207.41;;;10.37;62.16
75717;BME280;64333;50.138;14.332;2023-02-13T09:35:35;100201.31;;;10.43;61.15
75717;BME280;64333;50.138;14.332;2023-02-13T09:38:00;100203.66;;;10.61;61.24
75717;BME280;64333;50.138;14.332;2023-02-13T09:40:30;100204.38;;;10.70;60.32
75717;BME280;64333;50.138;14.332;2023-02-13T09:43:05;100203.53;;;10.68;60.66
75717;BME280;64333;50.138;14.332;2023-02-13T09:45:31;100200.44;;;10.44;60.91
75717;BME280;64333;50.138;14.332;2023-02-13T09:47:57;100209.19;;;10.32;61.08
75717;BME280;64333;50.138;14.332;2023-02-13T09:50:25;100205.44;;;9.79;62.73
75717;BME280;64333;50.138;14.332;2023-02-13T09:52:54;100206.63;;;9.48;63.26
75717;BME280;64333;50.138;14.332;2023-02-13T09:58:08;100211.84;;;9.39;63.92
75717;BME280;64333;50.138;14.332;2023-02-13T10:00:45;100214.22;;;9.61;63.68
75717;BME280;64333;50.138;14.332;2023-02-13T10:03:31;100227.22;;;9.51;62.72
75717;BME280;64333;50.138;14.332;2023-02-13T10:06:13;100219.47;;;9.54;62.61
75717;BME280;64333;50.138;14.332;2023-02-13T10:14:15;100219.38;;;9.60;61.67
75717;BME280;64333;50.138;14.332;2023-02-13T10:22:00;100221.03;;;9.70;61.65
75717;BME280;64333;50.138;14.332;2023-02-13T10:24:30;100227.22;;;9.52;62.52
75717;BME280;64333;50.138;14.332;2023-02-13T10:26:59;100222.28;;;9.24;63.32
75717;BME280;64333;50.138;14.332;2023-02-13T10:29:40;100210.09;;;9.44;62.39
75717;BME280;64333;50.138;14.332;2023-02-13T10:32:41;100217.81;;;9.44;63.31
75717;BME280;64333;50.138;14.332;2023-02-13T10:35:34;100215.25;;;9.42;62.68
75717;BME280;64333;50.138;14.332;2023-02-13T10:38:10;100207.47;;;9.47;62.47
75717;BME280;64333;50.138;14.332;2023-02-13T10:40:39;100206.47;;;9.63;61.56
75717;BME280;64333;50.138;14.332;2023-02-13T10:43:09;100204.63;;;9.75;62.55
75717;BME280;64333;50.138;14.332;2023-02-13T10:45:53;100201.75;;;10.07;61.77
75717;BME280;64333;50.138;14.332;2023-02-13T10:53:49;100202.94;;;10.48;59.91
75717;BME280;64333;50.138;14.332;2023-02-13T10:59:17;100199.13;;;11.32;57.47
75717;BME280;64333;50.138;14.332;2023-02-13T11:04:44;100190.03;;;12.05;56.18
75717;BME280;64333;50.138;14.332;2023-02-13T11:07:14;100188.75;;;11.83;52.63
75717;BME280;64333;50.138;14.332;2023-02-13T11:09:43;100188.81;;;11.80;52.36
75717;BME280;64333;50.138;14.332;2023-02-13T11:12:24;100180.75;;;11.45;53.46
75717;BME280;64333;50.138;14.332;2023-02-13T11:14:55;100187.66;;;11.95;51.88
75717;BME280;64333;50.138;14.332;2023-02-13T11:17:21;100181.44;;;12.03;50.32
75717;BME280;64333;50.138;14.332;2023-02-13T11:19:48;100173.44;;;12.55;50.27
75717;BME280;64333;50.138;14.332;2023-02-13T11:25:21;100177.88;;;12.89;46.76
75717;BME280;64333;50.138;14.332;2023-02-13T11:27:49;100182.59;;;13.77;45.40
75717;BME280;64333;50.138;14.332;2023-02-13T11:30:34;100177.69;;;14.87;42.39
75717;BME280;64333;50.138;14.332;2023-02-13T11:33:08;100178.03;;;14.17;43.93
75717;BME280;64333;50.138;14.332;2023-02-13T11:35:45;100174.47;;;14.50;43.14
75717;BME280;64333;50.138;14.332;2023-02-13T11:40:36;100171.25;;;14.99;41.16
75717;BME280;64333;50.138;14.332;2023-02-13T11:43:05;100164.34;;;13.80;43.54
75717;BME280;64333;50.138;14.332;2023-02-13T11:45:32;100170.44;;;13.79;42.63
75717;BME280;64333;50.138;14.332;2023-02-13T11:47:58;100171.38;;;14.39;42.00
75717;BME280;64333;50.138;14.332;2023-02-13T11:50:33;100167.69;;;13.85;43.55
75717;BME280;64333;50.138;14.332;2023-02-13T11:53:07;100167.50;;;13.91;43.53
75717;BME280;64333;50.138;14.332;2023-02-13T11:55:35;100170.00;;;14.55;43.13
75717;BME280;64333;50.138;14.332;2023-02-13T12:00:38;100163.41;;;13.83;44.70
75717;BME280;64333;50.138;14.332;2023-02-13T12:03:25;100162.97;;;14.30;43.08
75717;BME280;64333;50.138;14.332;2023-02-13T12:08:38;100161.66;;;14.14;42.89
75717;BME280;64333;50.138;14.332;2023-02-13T12:11:28;100152.91;;;13.87;43.52
75717;BME280;64333;50.138;14.332;2023-02-13T12:13:59;100146.53;;;14.29;43.20
75717;BME280;64333;50.138;14.332;2023-02-13T12:16:30;100147.28;;;14.02;43.65
75717;BME280;64333;50.138;14.332;2023-02-13T12:19:01;100140.53;;;13.31;45.20
75717;BME280;64333;50.138;14.332;2023-02-13T12:21:54;100152.94;;;13.20;45.70
75717;BME280;64333;50.138;14.332;2023-02-13T12:30:23;100136.50;;;12.83;46.24
75717;BME280;64333;50.138;14.332;2023-02-13T12:41:41;100116.41;;;15.31;41.38
75717;BME280;64333;50.138;14.332;2023-02-13T13:00:51;100098.84;;;14.85;41.31
75717;BME280;64333;50.138;14.332;2023-02-13T13:06:08;100095.53;;;14.25;42.20
75717;BME280;64333;50.138;14.332;2023-02-13T13:16:33;100098.63;;;13.46;44.77
75717;BME280;64333;50.138;14.332;2023-02-13T13:21:40;100095.75;;;12.14;48.01
75717;BME280;64333;50.138;14.332;2023-02-13T13:24:21;100103.91;;;12.37;48.02
75717;BME280;64333;50.138;14.332;2023-02-13T13:26:49;100094.59;;;11.87;48.39
75717;BME280;64333;50.138;14.332;2023-02-13T13:29:28;100089.47;;;11.84;48.80
75717;BME280;64333;50.138;14.332;2023-02-13T13:32:02;100084.47;;;11.75;49.61
75717;BME280;64333;50.138;14.332;2023-02-13T13:34:30;100082.09;;;11.66;48.68
75717;BME280;64333;50.138;14.332;2023-02-13T13:46:23;100078.00;;;11.53;51.62
75717;BME280;64333;50.138;14.332;2023-02-13T13:51:29;100082.72;;;11.30;51.68
75717;BME280;64333;50.138;14.332;2023-02-13T14:07:36;100082.53;;;10.92;53.19
75717;BME280;64333;50.138;14.332;2023-02-13T14:10:07;100075.44;;;10.54;54.51
75717;BME280;64333;50.138;14.332;2023-02-13T14:31:30;100083.22;;;9.86;56.92
75717;BME280;64333;50.138;14.332;2023-02-13T14:34:16;100092.78;;;9.78;57.14
75717;BME280;64333;50.138;14.332;2023-02-13T14:36:48;100079.13;;;9.70;56.95
75717;BME280;64333;50.138;14.332;2023-02-13T14:39:30;100088.56;;;9.72;56.37
75717;BME280;64333;50.138;14.332;2023-02-13T14:42:00;100078.97;;;9.82;55.98
75717;BME280;64333;50.138;14.332;2023-02-13T14:44:45;100085.03;;;9.78;56.37
75717;BME280;64333;50.138;14.332;2023-02-13T14:47:25;100079.06;;;9.76;56.22
75717;BME280;64333;50.138;14.332;2023-02-13T14:49:54;100073.13;;;9.68;56.88
75717;BME280;64333;50.138;14.332;2023-02-13T14:52:27;100078.41;;;9.57;56.82
75717;BME280;64333;50.138;14.332;2023-02-13T14:55:03;100072.63;;;9.34;57.33
75717;BME280;64333;50.138;14.332;2023-02-13T14:57:38;100081.34;;;9.24;58.48
75717;BME280;64333;50.138;14.332;2023-02-13T15:00:25;100075.47;;;9.09;59.10
75717;BME280;64333;50.138;14.332;2023-02-13T15:02:55;100068.75;;;8.93;59.96
75717;BME280;64333;50.138;14.332;2023-02-13T15:05:31;100079.22;;;8.75;59.43
75717;BME280;64333;50.138;14.332;2023-02-13T15:08:19;100061.19;;;8.70;59.34
75717;BME280;64333;50.138;14.332;2023-02-13T15:13:16;100055.16;;;8.76;59.17
75717;BME280;64333;50.138;14.332;2023-02-13T15:15:45;100051.81;;;8.65;59.07
75717;BME280;64333;50.138;14.332;2023-02-13T15:18:21;100053.41;;;8.76;58.90
75717;BME280;64333;50.138;14.332;2023-02-13T15:20:48;100050.91;;;8.70;58.41
75717;BME280;64333;50.138;14.332;2023-02-13T15:23:22;100060.50;;;8.52;59.10
75717;BME280;64333;50.138;14.332;2023-02-13T15:26:02;100057.03;;;8.56;59.38
75717;BME280;64333;50.138;14.332;2023-02-13T15:28:29;100054.50;;;8.47;59.29
75717;BME280;64333;50.138;14.332;2023-02-13T15:31:02;100047.75;;;8.38;60.62
75717;BME280;64333;50.138;14.332;2023-02-13T15:34:16;100049.44;;;8.39;61.21
75717;BME280;64333;50.138;14.332;2023-02-13T15:36:26;100052.13;;;8.23;61.81
75717;BME280;64333;50.138;14.332;2023-02-13T15:39:03;100044.44;;;8.09;62.74
75717;BME280;64333;50.138;14.332;2023-02-13T15:41:37;100039.38;;;7.94;63.14
75717;BME280;64333;50.138;14.332;2023-02-13T15:44:04;100040.34;;;7.77;63.31
75717;BME280;64333;50.138;14.332;2023-02-13T15:46:34;100053.25;;;7.66;64.02
75717;BME280;64333;50.138;14.332;2023-02-13T15:49:05;100040.41;;;7.60;64.84
75717;BME280;64333;50.138;14.332;2023-02-13T15:51:31;100042.19;;;7.48;64.94
75717;BME280;64333;50.138;14.332;2023-02-13T15:54:04;100033.63;;;7.43;64.54
75717;BME280;64333;50.138;14.332;2023-02-13T15:56:30;100040.50;;;7.39;64.59
75717;BME280;64333;50.138;14.332;2023-02-13T15:58:57;100037.94;;;7.33;64.66